Impacts TAF Board
For situational awareness. Not to be used for flight planning purposes.
IDs:

KDRO - Durango/La Plata Cnt, CO, US

Issued at 1720 UTC 02 Aug 2021
Updated at 2152 UTC 02 Aug 2021
Potential Impact None Slight Moderate High
Time2053Z 02/22Z 02/23Z 03/00Z 03/01Z 03/02Z 03/03Z 03/04Z 03/05Z 03/06Z 03/07Z 03/08Z 03/09Z 03/10Z>>
Type OBS PRVL PRVL PRVL PRVL PRVL PRVL PRVL PRVL PRVL PRVL PRVL PRVL PRVL
VIS 10 >6 >6 >6 >6 >6 >6 >6 >6 >6 >6 >6 >6 >6
CIG -- 90 90 90 90 90 90 90 100 100 100 100 100 100
Cover CLR BKN BKN BKN BKN BKN BKN BKN BKN BKN BKN BKN BKN BKN
FltCat VFR VFR VFR VFR VFR VFR VFR VFR VFR VFR VFR VFR VFR VFR
WX -- VCTS VCTS VCTS VCTS VCTS VCTS VCTS -- -- -- -- -- --
WDir 280 330 330 330 330 330 330 330 280 280 280 280 280 280
WSpd 7 8 8 8 8 8 8 8 6 6 6 6 6 6
WGst 16 -- -- -- -- -- -- -- -- -- -- -- -- --
Raw TAF
KDRO 021720Z 0218/0318 15006KT P6SM SCT080
  TEMPO 0218/0221 VRB15G30KT 4SM TSRAGR BR BKN070CB
  FM022100 33008KT P6SM VCTS SCT060CB BKN090
  FM030500 28006KT P6SM SCT080 BKN100
  FM031200 00000KT P6SM BKN250


Raw METAR
KDRO 022053Z AUTO 28007G16KT 10SM CLR 27/11 A3033 RMK AO2 SLP179 T02670111 58025
KDRO 021953Z AUTO 25005G15KT 10SM CLR 24/12 A3037 RMK AO2 SLP195 T02440122
KDRO 021853Z AUTO VRB05KT 10SM CLR 23/13 A3040 RMK AO2 SLP212 T02280128

METAR Board
Radar Display
Forecast Discussion
For situational awareness. Not to be used for flight planning purposes.